Time,TemperatureF,DewpointF,PressureIn,WindDirection,WindDirectionDegrees,WindSpeedMPH,WindSpeedGustMPH,Humidity,HourlyPrecipIn,Conditions,Clouds,dailyrainin,SoftwareType,DateUTC
2013-09-21 00:01:00,77.5,75.0,29.78,SE,127,0.0,0.0,93,0.00,,,0.00,weatherlink.com 1.10,2013-09-21 05:01:00,
2013-09-21 00:16:00,77.5,75.0,29.77,SE,127,0.0,0.0,93,0.00,,,0.00,weatherlink.com 1.10,2013-09-21 05:16:00,
2013-09-21 00:31:00,77.4,75.0,29.77,SE,127,0.0,0.0,93,0.00,,,0.00,weatherlink.com 1.10,2013-09-21 05:31:00,
2013-09-21 00:46:00,77.2,75.0,29.76,SE,127,0.0,0.0,93,0.00,,,0.00,weatherlink.com 1.10,2013-09-21 05:46:00,
2013-09-21 01:01:00,77.2,75.0,29.76,SE,127,0.0,0.0,94,0.00,,,0.00,weatherlink.com 1.10,2013-09-21 06:01:00,
2013-09-21 01:16:00,76.9,75.0,29.76,SE,127,0.0,0.0,94,0.00,,,0.00,weatherlink.com 1.10,2013-09-21 06:16:00,
2013-09-21 01:31:00,76.5,75.0,29.76,SE,127,0.0,0.0,94,0.00,,,0.00,weatherlink.com 1.10,2013-09-21 06:31:00,
2013-09-21 01:46:00,76.4,75.0,29.75,SE,127,0.0,0.0,95,0.00,,,0.00,weatherlink.com 1.10,2013-09-21 06:46:00,
2013-09-21 02:01:00,76.5,75.0,29.75,SE,127,0.0,0.0,94,0.00,,,0.00,weatherlink.com 1.10,2013-09-21 07:01:00,
2013-09-21 02:16:00,76.7,75.0,29.75,SE,127,0.0,0.0,94,0.00,,,0.00,weatherlink.com 1.10,2013-09-21 07:16:00,
2013-09-21 02:31:00,76.7,75.0,29.74,SE,127,0.0,0.0,94,0.00,,,0.00,weatherlink.com 1.10,2013-09-21 07:31:00,
2013-09-21 02:46:00,76.5,75.0,29.73,SE,127,0.0,0.0,94,0.00,,,0.00,weatherlink.com 1.10,2013-09-21 07:46:00,
2013-09-21 03:01:00,76.4,75.0,29.73,SE,127,0.0,0.0,95,0.00,,,0.00,weatherlink.com 1.10,2013-09-21 08:01:00,
2013-09-21 03:16:00,76.4,75.0,29.73,SE,127,0.0,0.0,95,0.00,,,0.00,weatherlink.com 1.10,2013-09-21 08:16:00,
2013-09-21 03:31:00,76.4,75.0,29.72,SE,127,0.0,0.0,95,0.00,,,0.00,weatherlink.com 1.10,2013-09-21 08:31:00,
2013-09-21 03:46:00,76.8,76.0,29.72,ESE,115,1.0,3.0,96,0.06,,,0.06,weatherlink.com 1.10,2013-09-21 08:46:00,
2013-09-21 04:01:00,76.4,75.0,29.73,ESE,115,0.0,0.0,96,0.06,,,0.06,weatherlink.com 1.10,2013-09-21 09:01:00,
2013-09-21 04:16:00,75.8,75.0,29.73,ESE,116,0.0,0.0,96,0.06,,,0.06,weatherlink.com 1.10,2013-09-21 09:16:00,
2013-09-21 04:31:00,75.6,74.0,29.72,ESE,115,0.0,0.0,96,0.06,,,0.06,weatherlink.com 1.10,2013-09-21 09:31:00,
2013-09-21 04:46:00,75.6,75.0,29.72,ESE,115,0.0,0.0,97,0.00,,,0.06,weatherlink.com 1.10,2013-09-21 09:46:00,
2013-09-21 05:01:00,75.9,75.0,29.72,ESE,115,0.0,0.0,97,0.00,,,0.06,weatherlink.com 1.10,2013-09-21 10:01:00,
2013-09-21 05:16:00,76.2,75.0,29.72,ESE,116,0.0,0.0,97,0.01,,,0.07,weatherlink.com 1.10,2013-09-21 10:16:00,
2013-09-21 05:31:00,76.4,76.0,29.73,ESE,115,0.0,1.0,97,0.02,,,0.08,weatherlink.com 1.10,2013-09-21 10:31:00,
2013-09-21 05:46:00,76.2,75.0,29.73,ESE,115,0.0,0.0,97,0.02,,,0.08,weatherlink.com 1.10,2013-09-21 10:46:00,
2013-09-21 06:01:00,76.2,75.0,29.73,ESE,116,0.0,0.0,97,0.02,,,0.08,weatherlink.com 1.10,2013-09-21 11:01:00,
2013-09-21 06:16:00,76.1,75.0,29.72,ESE,115,0.0,0.0,97,0.05,,,0.12,weatherlink.com 1.10,2013-09-21 11:16:00,
2013-09-21 06:31:00,76.1,75.0,29.72,ESE,115,0.0,0.0,97,0.04,,,0.12,weatherlink.com 1.10,2013-09-21 11:31:00,
2013-09-21 06:46:00,76.0,75.0,29.72,ESE,115,0.0,0.0,97,0.04,,,0.12,weatherlink.com 1.10,2013-09-21 11:46:00,
2013-09-21 07:01:00,75.9,75.0,29.72,ESE,115,0.0,0.0,97,0.04,,,0.12,weatherlink.com 1.10,2013-09-21 12:01:00,
2013-09-21 07:16:00,76.0,75.0,29.73,ESE,115,0.0,0.0,97,0.00,,,0.12,weatherlink.com 1.10,2013-09-21 12:16:00,
2013-09-21 07:31:00,76.2,76.0,29.73,ESE,115,0.0,0.0,98,0.00,,,0.12,weatherlink.com 1.10,2013-09-21 12:31:00,
2013-09-21 07:46:00,76.4,76.0,29.73,ESE,115,0.0,0.0,98,0.00,,,0.12,weatherlink.com 1.10,2013-09-21 12:46:00,
2013-09-21 08:01:00,76.6,76.0,29.73,ESE,115,0.0,0.0,98,0.00,,,0.12,weatherlink.com 1.10,2013-09-21 13:01:00,
2013-09-21 08:16:00,76.7,76.0,29.73,ESE,115,0.0,0.0,98,0.00,,,0.12,weatherlink.com 1.10,2013-09-21 13:16:00,
2013-09-21 08:31:00,76.8,76.0,29.73,ESE,116,0.0,0.0,98,0.00,,,0.12,weatherlink.com 1.10,2013-09-21 13:31:00,
2013-09-21 08:46:00,77.1,77.0,29.73,ESE,115,0.0,0.0,98,0.00,,,0.12,weatherlink.com 1.10,2013-09-21 13:46:00,
2013-09-21 09:01:00,77.3,77.0,29.73,ESE,116,0.0,0.0,98,0.00,,,0.12,weatherlink.com 1.10,2013-09-21 14:01:00,
2013-09-21 09:16:00,77.7,77.0,29.73,ESE,116,0.0,0.0,98,0.00,,,0.12,weatherlink.com 1.10,2013-09-21 14:16:00,
2013-09-21 09:31:00,77.9,77.0,29.73,ESE,115,0.0,0.0,98,0.00,,,0.12,weatherlink.com 1.10,2013-09-21 14:31:00,
2013-09-21 09:46:00,78.3,78.0,29.74,ESE,115,0.0,0.0,98,0.00,,,0.12,weatherlink.com 1.10,2013-09-21 14:46:00,
2013-09-21 10:01:00,78.6,78.0,29.74,ESE,115,0.0,0.0,98,0.00,,,0.12,weatherlink.com 1.10,2013-09-21 15:01:00,
2013-09-21 10:16:00,79.0,78.0,29.74,ESE,115,0.0,0.0,98,0.01,,,0.13,weatherlink.com 1.10,2013-09-21 15:16:00,
2013-09-21 10:31:00,79.4,79.0,29.74,ESE,116,0.0,0.0,98,0.02,,,0.14,weatherlink.com 1.10,2013-09-21 15:31:00,
2013-09-21 10:46:00,79.9,79.0,29.74,ESE,115,0.0,0.0,98,0.02,,,0.14,weatherlink.com 1.10,2013-09-21 15:46:00,
2013-09-21 11:01:00,80.2,80.0,29.73,ESE,115,0.0,0.0,98,0.02,,,0.14,weatherlink.com 1.10,2013-09-21 16:01:00,
2013-09-21 11:16:00,80.1,79.0,29.72,ESE,115,0.0,1.0,97,0.00,,,0.14,weatherlink.com 1.10,2013-09-21 16:16:00,
2013-09-21 11:31:00,77.6,76.0,29.73,East,81,1.0,4.0,93,0.10,,,0.24,weatherlink.com 1.10,2013-09-21 16:31:00,
2013-09-21 11:46:00,76.1,75.0,29.72,ENE,78,0.0,2.0,96,0.13,,,0.27,weatherlink.com 1.10,2013-09-21 16:46:00,
2013-09-21 12:02:00,76.6,76.0,29.73,ENE,77,0.0,1.0,97,0.15,,,0.29,weatherlink.com 1.10,2013-09-21 17:02:00,
2013-09-21 12:17:00,77.0,76.0,29.72,East,94,0.0,1.0,97,0.22,,,0.36,weatherlink.com 1.10,2013-09-21 17:17:00,
2013-09-21 12:32:00,77.4,77.0,29.72,ENE,78,1.0,2.0,97,0.12,,,0.36,weatherlink.com 1.10,2013-09-21 17:32:00,
2013-09-21 12:47:00,77.2,76.0,29.72,East,97,0.0,2.0,95,0.10,,,0.37,weatherlink.com 1.10,2013-09-21 17:47:00,
2013-09-21 13:02:00,77.4,76.0,29.71,East,97,0.0,1.0,95,0.07,,,0.37,weatherlink.com 1.10,2013-09-21 18:02:00,
2013-09-21 13:17:00,77.8,76.0,29.71,ESE,107,0.0,2.0,95,0.01,,,0.37,weatherlink.com 1.10,2013-09-21 18:17:00,
2013-09-21 13:32:00,78.2,76.0,29.71,East,98,0.0,1.0,94,0.01,,,0.37,weatherlink.com 1.10,2013-09-21 18:32:00,
2013-09-21 13:47:00,78.4,76.0,29.70,ENE,74,0.0,3.0,93,0.01,,,0.38,weatherlink.com 1.10,2013-09-21 18:47:00,
2013-09-21 14:02:00,78.0,76.0,29.70,ENE,73,0.0,2.0,93,0.01,,,0.38,weatherlink.com 1.10,2013-09-21 19:02:00,
2013-09-21 14:17:00,77.7,76.0,29.70,East,79,0.0,2.0,93,0.01,,,0.38,weatherlink.com 1.10,2013-09-21 19:17:00,
2013-09-21 14:32:00,77.5,76.0,29.70,ESE,121,0.0,3.0,94,0.02,,,0.39,weatherlink.com 1.10,2013-09-21 19:32:00,
2013-09-21 14:47:00,77.6,76.0,29.69,ESE,115,0.0,1.0,95,0.01,,,0.39,weatherlink.com 1.10,2013-09-21 19:47:00,
2013-09-21 15:02:00,77.8,76.0,29.68,East,97,0.0,1.0,95,0.02,,,0.40,weatherlink.com 1.10,2013-09-21 20:02:00,
2013-09-21 15:17:00,77.8,76.0,29.68,ENE,78,0.0,2.0,94,0.02,,,0.40,weatherlink.com 1.10,2013-09-21 20:17:00,
2013-09-21 15:32:00,77.8,76.0,29.68,East,93,0.0,1.0,94,0.01,,,0.40,weatherlink.com 1.10,2013-09-21 20:32:00,
2013-09-21 15:47:00,77.5,76.0,29.68,East,93,0.0,0.0,94,0.01,,,0.40,weatherlink.com 1.10,2013-09-21 20:47:00,
2013-09-21 16:02:00,77.5,76.0,29.67,East,93,0.0,0.0,95,0.01,,,0.41,weatherlink.com 1.10,2013-09-21 21:02:00,
2013-09-21 16:17:00,77.4,76.0,29.67,East,94,0.0,0.0,95,0.02,,,0.42,weatherlink.com 1.10,2013-09-21 21:17:00,
2013-09-21 16:32:00,77.1,76.0,29.66,East,94,0.0,0.0,95,0.03,,,0.43,weatherlink.com 1.10,2013-09-21 21:32:00,
2013-09-21 16:47:00,77.1,76.0,29.66,East,93,0.0,0.0,96,0.08,,,0.48,weatherlink.com 1.10,2013-09-21 21:47:00,
2013-09-21 17:02:00,76.8,75.0,29.66,East,93,0.0,0.0,95,0.07,,,0.48,weatherlink.com 1.10,2013-09-21 22:02:00,
2013-09-21 17:17:00,76.6,75.0,29.66,East,93,0.0,0.0,96,0.06,,,0.48,weatherlink.com 1.10,2013-09-21 22:17:00,
2013-09-21 17:32:00,76.8,76.0,29.65,East,93,0.0,1.0,96,0.05,,,0.48,weatherlink.com 1.10,2013-09-21 22:32:00,
2013-09-21 17:47:00,76.6,75.0,29.65,East,94,0.0,0.0,96,0.00,,,0.48,weatherlink.com 1.10,2013-09-21 22:47:00,
2013-09-21 18:02:00,76.4,75.0,29.66,East,94,0.0,0.0,96,0.00,,,0.48,weatherlink.com 1.10,2013-09-21 23:02:00,
2013-09-21 18:17:00,76.2,75.0,29.66,East,94,0.0,0.0,96,0.01,,,0.49,weatherlink.com 1.10,2013-09-21 23:17:00,
2013-09-21 18:32:00,76.2,75.0,29.66,East,93,0.0,0.0,97,0.01,,,0.49,weatherlink.com 1.10,2013-09-21 23:32:00,
2013-09-21 18:47:00,76.2,75.0,29.66,East,94,0.0,0.0,97,0.01,,,0.49,weatherlink.com 1.10,2013-09-21 23:47:00,
2013-09-21 19:02:00,76.1,75.0,29.67,East,94,0.0,0.0,97,0.01,,,0.49,weatherlink.com 1.10,2013-09-22 00:02:00,
2013-09-21 19:17:00,76.0,75.0,29.67,East,94,0.0,0.0,97,0.01,,,0.50,weatherlink.com 1.10,2013-09-22 00:17:00,
2013-09-21 19:32:00,76.0,75.0,29.68,East,94,0.0,0.0,97,0.02,,,0.51,weatherlink.com 1.10,2013-09-22 00:32:00,
2013-09-21 19:47:00,75.9,75.0,29.68,East,93,0.0,0.0,97,0.02,,,0.51,weatherlink.com 1.10,2013-09-22 00:47:00,
2013-09-21 20:03:00,75.9,75.0,29.68,East,93,0.0,0.0,97,0.02,,,0.51,weatherlink.com 1.10,2013-09-22 01:03:00,
2013-09-21 20:17:00,75.8,75.0,29.68,East,93,0.0,0.0,97,0.01,,,0.51,weatherlink.com 1.10,2013-09-22 01:17:00,
2013-09-21 20:32:00,75.7,75.0,29.68,East,94,0.0,0.0,97,0.00,,,0.51,weatherlink.com 1.10,2013-09-22 01:32:00,
2013-09-21 20:47:00,75.5,75.0,29.69,East,94,0.0,0.0,97,0.00,,,0.51,weatherlink.com 1.10,2013-09-22 01:47:00,
2013-09-21 21:02:00,75.3,75.0,29.69,East,93,0.0,0.0,98,0.00,,,0.51,weatherlink.com 1.10,2013-09-22 02:02:00,
2013-09-21 21:17:00,75.3,75.0,29.69,East,94,0.0,0.0,98,0.00,,,0.51,weatherlink.com 1.10,2013-09-22 02:17:00,
2013-09-21 21:32:00,75.3,75.0,29.69,East,93,0.0,0.0,98,0.01,,,0.52,weatherlink.com 1.10,2013-09-22 02:32:00,
2013-09-21 21:47:00,75.2,75.0,29.69,East,93,0.0,1.0,98,0.02,,,0.53,weatherlink.com 1.10,2013-09-22 02:47:00,
2013-09-21 22:02:00,75.3,75.0,29.69,East,93,0.0,0.0,98,0.03,,,0.54,weatherlink.com 1.10,2013-09-22 03:02:00,
2013-09-21 22:17:00,75.2,75.0,29.69,East,93,0.0,0.0,98,0.03,,,0.54,weatherlink.com 1.10,2013-09-22 03:17:00,
2013-09-21 22:32:00,74.7,74.0,29.69,ESE,115,0.0,2.0,97,0.02,,,0.54,weatherlink.com 1.10,2013-09-22 03:32:00,
2013-09-21 22:47:00,74.4,74.0,29.69,ESE,115,0.0,1.0,97,0.01,,,0.54,weatherlink.com 1.10,2013-09-22 03:47:00,
2013-09-21 23:02:00,74.2,74.0,29.69,ESE,115,0.0,1.0,98,0.00,,,0.54,weatherlink.com 1.10,2013-09-22 04:02:00,
2013-09-21 23:17:00,74.0,73.0,29.69,ESE,111,0.0,1.0,98,0.00,,,0.54,weatherlink.com 1.10,2013-09-22 04:17:00,
2013-09-21 23:32:00,73.9,73.0,29.69,ESE,114,0.0,0.0,98,0.00,,,0.54,weatherlink.com 1.10,2013-09-22 04:32:00,
2013-09-21 23:47:00,73.7,73.0,29.70,SE,127,0.0,3.0,98,0.00,,,0.54,weatherlink.com 1.10,2013-09-22 04:47:00,